Terminal Aerodrome Forecast
Issued by NWS Grand Rapids, MI

Home | Current Version | Previous Version | Text Only | Print | Product List | Glossary On
Versions: 1 2 3 4 5 6 7 8 9 10 11 12 13 14 15 16 17 18 19
848
FTUS43 KGRR 080539
TAFGRR
TAF
KGRR 080539Z 0806/0906 23008KT P6SM SCT040
     FM081000 24005KT 2SM BR BKN007
     FM081600 27006KT 5SM BR VCSH OVC015=

USA.gov is the U.S. government's official web portal to all federal, state and local government web resources and services.